createdAt,value
2023-05-12T00:01:19.987Z,11.29
2023-05-12T00:03:50.050Z,11.41
2023-05-12T00:06:19.365Z,11.42
2023-05-12T00:08:50.023Z,11.36
2023-05-12T00:11:19.784Z,11.45
2023-05-12T00:13:57.799Z,11.43
2023-05-12T00:16:27.201Z,11.43
2023-05-12T00:18:55.185Z,11.36
2023-05-12T00:21:36.790Z,11.35
2023-05-12T00:24:07.117Z,11.31
2023-05-12T00:26:44.871Z,11.12
2023-05-12T00:29:18.889Z,11.34
2023-05-12T00:34:31.669Z,11.21
2023-05-12T00:37:02.928Z,11.24
2023-05-12T00:39:33.880Z,11.27
2023-05-12T00:42:11.056Z,11.27
2023-05-12T00:44:42.838Z,11.27
2023-05-12T00:47:15.374Z,11.30
2023-05-12T00:49:45.908Z,11.19
2023-05-12T00:52:20.964Z,11.27
2023-05-12T00:54:51.502Z,11.26
2023-05-12T00:57:22.050Z,11.24
2023-05-12T01:00:00.304Z,11.12
2023-05-12T01:02:42.150Z,11.17
2023-05-12T01:05:15.781Z,11.21
2023-05-12T01:07:52.545Z,11.25
2023-05-12T01:10:29.431Z,11.12
2023-05-12T01:13:07.144Z,11.10
2023-05-12T01:15:48.438Z,11.02
2023-05-12T01:18:20.651Z,10.98
2023-05-12T01:21:04.456Z,10.97
2023-05-12T01:23:41.502Z,10.93
2023-05-12T01:26:19.219Z,10.83
2023-05-12T01:28:52.616Z,10.90
2023-05-12T01:31:21.617Z,11.01
2023-05-12T01:33:52.224Z,11.10
2023-05-12T01:36:20.751Z,11.10
2023-05-12T01:38:55.278Z,11.11
2023-05-12T01:41:28.104Z,11.02
2023-05-12T01:44:10.977Z,11.04
2023-05-12T01:46:55.066Z,11.06
2023-05-12T01:49:36.085Z,11.06
2023-05-12T01:52:05.817Z,11.10
2023-05-12T01:54:36.857Z,11.13
2023-05-12T01:57:22.211Z,11.17
2023-05-12T01:59:56.098Z,11.09
2023-05-12T02:02:43.066Z,10.97
2023-05-12T02:05:18.515Z,10.81
2023-05-12T02:07:49.975Z,11.10
2023-05-12T02:10:19.859Z,11.00
2023-05-12T02:12:49.424Z,11.03
2023-05-12T02:15:21.781Z,11.01
2023-05-12T02:18:03.454Z,11.07
2023-05-12T02:20:37.263Z,11.03
2023-05-12T02:23:08.296Z,10.93
2023-05-12T02:25:45.948Z,10.90
2023-05-12T02:28:28.062Z,10.95
2023-05-12T02:30:58.166Z,11.02
2023-05-12T02:33:30.440Z,11.02
2023-05-12T02:36:01.048Z,10.93
2023-05-12T02:38:32.975Z,10.98
2023-05-12T02:41:06.919Z,10.84
2023-05-12T02:43:40.722Z,10.95
2023-05-12T02:46:11.897Z,10.94
2023-05-12T02:48:43.243Z,10.94
2023-05-12T02:51:12.204Z,10.89
2023-05-12T02:53:42.430Z,10.90
2023-05-12T02:56:16.254Z,10.83
2023-05-12T02:58:46.590Z,10.87
2023-05-12T03:01:18.445Z,10.85
2023-05-12T03:03:49.193Z,10.90
2023-05-12T03:06:22.125Z,10.88
2023-05-12T03:08:50.011Z,10.92
2023-05-12T03:14:03.372Z,10.98
2023-05-12T03:16:37.344Z,10.89
2023-05-12T03:19:06.487Z,10.90
2023-05-12T03:21:37.846Z,10.90
2023-05-12T03:24:16.702Z,10.98
2023-05-12T03:26:49.338Z,10.97
2023-05-12T03:29:27.032Z,10.89
2023-05-12T03:32:00.281Z,10.89
2023-05-12T03:34:38.230Z,10.81
2023-05-12T03:37:20.133Z,10.75
2023-05-12T03:39:53.315Z,10.90
2023-05-12T03:42:23.952Z,10.95
2023-05-12T03:45:04.436Z,10.83
2023-05-12T03:47:36.186Z,10.83
2023-05-12T03:50:14.255Z,10.92
2023-05-12T03:52:42.469Z,10.92
2023-05-12T03:55:14.892Z,10.81
2023-05-12T04:00:35.346Z,10.85
2023-05-12T04:03:11.975Z,10.77
2023-05-12T04:05:43.018Z,10.97
2023-05-12T04:08:12.803Z,10.95
2023-05-12T04:10:46.434Z,10.92
2023-05-12T04:13:17.895Z,10.99
2023-05-12T04:15:46.598Z,10.79
2023-05-12T04:18:18.921Z,10.83
2023-05-12T04:20:49.347Z,10.91
2023-05-12T04:23:21.099Z,11.01
2023-05-12T04:25:51.788Z,10.95
2023-05-12T04:28:21.372Z,10.99
2023-05-12T04:30:58.777Z,11.02
2023-05-12T04:33:30.975Z,11.03
2023-05-12T04:35:59.802Z,11.00
2023-05-12T04:38:32.368Z,10.90
2023-05-12T04:41:09.540Z,11.03
2023-05-12T04:46:24.199Z,11.01
2023-05-12T04:48:55.110Z,10.95
2023-05-12T04:51:28.547Z,11.02
2023-05-12T04:54:16.456Z,10.92
2023-05-12T04:56:57.023Z,11.00
2023-05-12T04:59:41.033Z,11.09
2023-05-12T05:02:19.106Z,11.04
2023-05-12T05:04:47.794Z,10.78
2023-05-12T05:07:21.540Z,10.98
2023-05-12T05:09:53.313Z,11.09
2023-05-12T05:12:22.282Z,11.17
2023-05-12T05:14:51.439Z,11.22
2023-05-12T05:17:30.137Z,11.27
2023-05-12T05:20:00.316Z,11.32
2023-05-12T05:22:34.429Z,11.39
2023-05-12T05:25:23.481Z,11.38
2023-05-12T05:27:53.468Z,11.40
2023-05-12T05:30:23.472Z,11.48
2023-05-12T05:33:06.039Z,11.44
2023-05-12T05:35:41.442Z,11.61
2023-05-12T05:38:13.616Z,11.71
2023-05-12T05:40:52.968Z,11.74
2023-05-12T05:43:25.700Z,11.75
2023-05-12T05:45:56.122Z,11.80
2023-05-12T05:48:24.212Z,11.87
2023-05-12T05:50:53.272Z,11.88
2023-05-12T05:53:23.955Z,11.91
2023-05-12T05:58:37.640Z,12.03
2023-05-12T06:01:14.046Z,12.04
2023-05-12T06:03:49.583Z,12.09
2023-05-12T06:06:19.836Z,12.11
2023-05-12T06:08:51.243Z,12.29
2023-05-12T06:11:23.843Z,12.28
2023-05-12T06:13:51.552Z,12.12
2023-05-12T06:16:25.002Z,12.20
2023-05-12T06:18:53.414Z,12.19
2023-05-12T06:21:25.229Z,12.12
2023-05-12T06:24:03.827Z,12.25
2023-05-12T06:26:34.170Z,12.34
2023-05-12T06:29:12.617Z,12.27
2023-05-12T06:31:45.371Z,12.34
2023-05-12T06:34:18.150Z,12.18
2023-05-12T06:36:53.796Z,12.26
2023-05-12T06:39:23.955Z,12.21
2023-05-12T06:41:56.666Z,12.10
2023-05-12T06:44:31.555Z,12.46
2023-05-12T06:47:03.015Z,12.47
2023-05-12T06:49:47.578Z,12.66
2023-05-12T06:52:21.011Z,12.59
2023-05-12T06:54:52.483Z,12.52
2023-05-12T06:57:22.213Z,12.60
2023-05-12T06:59:55.205Z,12.66
2023-05-12T07:02:25.767Z,12.61
2023-05-12T07:04:56.308Z,12.83
2023-05-12T07:07:26.696Z,12.68
2023-05-12T07:10:13.459Z,12.66
2023-05-12T07:12:44.159Z,12.96
2023-05-12T07:15:15.674Z,13.13
2023-05-12T07:17:44.628Z,12.93
2023-05-12T07:20:16.417Z,12.98
2023-05-12T07:22:50.639Z,12.77
2023-05-12T07:25:24.855Z,12.74
2023-05-12T07:27:59.996Z,12.84
2023-05-12T07:30:32.049Z,12.94
2023-05-12T07:33:04.838Z,12.86
2023-05-12T07:35:35.577Z,12.97
2023-05-12T07:38:19.785Z,12.92
2023-05-12T07:40:58.974Z,13.01
2023-05-12T07:43:30.596Z,12.90
2023-05-12T07:46:07.246Z,13.00
2023-05-12T07:48:47.604Z,13.02
2023-05-12T07:51:22.532Z,13.25
2023-05-12T07:53:52.859Z,13.17
2023-05-12T07:56:24.926Z,13.17
2023-05-12T07:58:56.985Z,13.05
2023-05-12T08:01:25.397Z,13.08
2023-05-12T08:04:01.547Z,13.23
2023-05-12T08:06:32.971Z,13.26
2023-05-12T08:09:21.159Z,13.34
2023-05-12T08:11:52.012Z,13.14
2023-05-12T08:14:22.788Z,13.13
2023-05-12T08:16:57.154Z,13.19
2023-05-12T08:19:28.652Z,13.27
2023-05-12T08:22:04.259Z,13.16
2023-05-12T08:24:35.638Z,13.06
2023-05-12T08:27:18.936Z,13.12
2023-05-12T08:29:49.932Z,12.74
2023-05-12T08:32:26.553Z,13.00
2023-05-12T08:34:54.963Z,13.12
2023-05-12T08:37:26.408Z,12.70
2023-05-12T08:40:01.238Z,13.09
2023-05-12T08:43:08.725Z,12.98
2023-05-12T08:45:45.518Z,12.98
2023-05-12T08:48:19.763Z,13.08
2023-05-12T08:50:54.071Z,13.26
2023-05-12T08:59:06.745Z,13.13
2023-05-12T09:01:44.010Z,13.26
2023-05-12T09:04:17.975Z,13.22
2023-05-12T09:06:47.111Z,13.39
2023-05-12T09:09:28.101Z,13.38
2023-05-12T09:12:03.238Z,13.39
2023-05-12T09:14:40.284Z,13.41
2023-05-12T09:17:23.296Z,13.20
2023-05-12T09:19:56.194Z,13.07
2023-05-12T09:22:38.458Z,13.24
2023-05-12T09:25:22.796Z,13.22
2023-05-12T09:27:59.592Z,13.25
2023-05-12T09:30:46.103Z,13.21
2023-05-12T09:33:16.518Z,13.32
2023-05-12T09:35:50.838Z,13.35
2023-05-12T09:38:39.370Z,13.19
2023-05-12T09:41:16.825Z,13.33
2023-05-12T09:43:47.834Z,13.06
2023-05-12T09:46:23.141Z,13.02
2023-05-12T09:48:53.300Z,13.15
2023-05-12T09:51:24.581Z,13.36
2023-05-12T09:53:55.095Z,13.43
2023-05-12T09:56:28.979Z,13.51
2023-05-12T10:01:41.068Z,13.49
2023-05-12T10:04:19.007Z,13.13
2023-05-12T10:09:42.483Z,13.30
2023-05-12T10:12:21.237Z,13.00
2023-05-12T10:14:51.982Z,13.16
2023-05-12T10:17:24.270Z,13.14
2023-05-12T10:19:59.690Z,13.07
2023-05-12T10:22:40.630Z,13.36
2023-05-12T10:25:14.770Z,13.46
2023-05-12T10:27:42.796Z,13.18
2023-05-12T10:30:14.177Z,12.99
2023-05-12T10:33:08.421Z,13.19
2023-05-12T10:35:51.694Z,13.29
2023-05-12T10:38:28.959Z,13.39
2023-05-12T10:41:10.351Z,13.52
2023-05-12T10:43:43.525Z,13.25
2023-05-12T10:46:24.581Z,13.15
2023-05-12T10:49:04.940Z,13.02
2023-05-12T10:51:56.960Z,13.05
2023-05-12T10:54:28.362Z,13.26
2023-05-12T10:57:02.913Z,13.19
2023-05-12T10:59:48.738Z,13.48
2023-05-12T11:02:41.751Z,13.57
2023-05-12T11:05:19.457Z,13.74
2023-05-12T11:07:54.621Z,13.81
2023-05-12T11:10:29.318Z,13.61
2023-05-12T11:13:01.303Z,13.51
2023-05-12T11:15:38.438Z,13.62
2023-05-12T11:18:11.378Z,13.94
2023-05-12T11:20:43.888Z,13.85
2023-05-12T11:23:13.735Z,13.92
2023-05-12T11:26:06.492Z,13.83
2023-05-12T11:28:47.984Z,13.91
2023-05-12T11:31:24.220Z,14.12
2023-05-12T11:34:13.097Z,14.13
2023-05-12T11:36:52.575Z,14.24
2023-05-12T11:39:23.567Z,13.94
2023-05-12T11:42:09.111Z,13.97
2023-05-12T11:44:55.708Z,13.89
2023-05-12T11:47:33.992Z,13.90
2023-05-12T11:50:16.884Z,14.09
2023-05-12T11:55:34.196Z,13.96
2023-05-12T11:58:04.718Z,14.09
2023-05-12T12:00:38.119Z,14.34
2023-05-12T12:03:15.844Z,14.30
2023-05-12T12:05:48.107Z,14.22
2023-05-12T12:08:25.051Z,14.21
2023-05-12T12:10:58.156Z,14.44
2023-05-12T12:13:41.533Z,14.51
2023-05-12T12:16:14.291Z,14.03
2023-05-12T12:18:52.470Z,14.27
2023-05-12T12:21:40.823Z,14.53
2023-05-12T12:24:13.058Z,14.45
2023-05-12T12:26:44.052Z,14.65
2023-05-12T12:29:16.242Z,14.64
2023-05-12T12:31:54.442Z,14.37
2023-05-12T12:34:38.499Z,14.43
2023-05-12T12:37:17.299Z,14.38
2023-05-12T12:39:47.695Z,14.56
2023-05-12T12:42:30.072Z,14.51
2023-05-12T12:45:06.034Z,14.38
2023-05-12T12:47:41.790Z,14.57
2023-05-12T12:50:13.679Z,14.36
2023-05-12T12:52:45.419Z,14.45
2023-05-12T12:55:35.056Z,14.44
2023-05-12T12:58:20.312Z,14.30
2023-05-12T13:00:53.652Z,14.14
2023-05-12T13:03:25.960Z,14.21
2023-05-12T13:06:10.221Z,14.14
2023-05-12T13:08:40.277Z,14.23
2023-05-12T13:11:11.081Z,14.27
2023-05-12T13:13:39.784Z,14.19
2023-05-12T13:16:11.410Z,14.16
2023-05-12T13:18:42.141Z,14.26
2023-05-12T13:21:17.335Z,14.02
2023-05-12T13:23:45.590Z,14.15
2023-05-12T13:26:24.428Z,13.75
2023-05-12T13:28:54.934Z,13.87
2023-05-12T13:31:26.552Z,13.77
2023-05-12T13:33:57.098Z,13.67
2023-05-12T13:36:31.261Z,13.72
2023-05-12T13:41:40.603Z,13.95
2023-05-12T13:44:09.621Z,13.91
2023-05-12T13:46:41.037Z,13.78
2023-05-12T13:49:15.705Z,13.88
2023-05-12T13:51:43.640Z,13.87
2023-05-12T13:54:14.687Z,13.93
2023-05-12T13:59:34.974Z,13.62
2023-05-12T14:02:04.077Z,13.81
2023-05-12T14:04:45.087Z,13.59
2023-05-12T14:07:20.867Z,13.49
2023-05-12T14:09:53.596Z,13.57
2023-05-12T14:12:23.366Z,13.65
2023-05-12T14:15:21.789Z,13.21
2023-05-12T14:17:58.600Z,13.69
2023-05-12T14:20:35.653Z,13.74
2023-05-12T14:23:07.275Z,13.52
2023-05-12T14:25:40.312Z,13.64
2023-05-12T14:28:08.544Z,13.60
2023-05-12T14:30:43.799Z,13.58
2023-05-12T14:33:12.812Z,13.57
2023-05-12T14:36:03.260Z,13.69
2023-05-12T14:38:38.230Z,13.85
2023-05-12T14:41:10.080Z,13.84
2023-05-12T14:43:39.846Z,13.91
2023-05-12T14:46:15.120Z,13.85
2023-05-12T14:48:53.254Z,13.87
2023-05-12T14:51:22.560Z,13.80
2023-05-12T14:54:24.812Z,13.82
2023-05-12T14:56:59.411Z,13.89
2023-05-12T14:59:43.563Z,13.61
2023-05-12T15:02:13.610Z,13.92
2023-05-12T15:04:44.685Z,13.85
2023-05-12T15:07:15.386Z,13.91
2023-05-12T15:09:53.237Z,13.88
2023-05-12T15:12:24.029Z,14.08
2023-05-12T15:14:56.205Z,13.83
2023-05-12T15:17:25.029Z,13.90
2023-05-12T15:19:54.070Z,13.94
2023-05-12T15:22:24.087Z,13.91
2023-05-12T15:25:07.105Z,13.90
2023-05-12T15:27:37.093Z,13.93
2023-05-12T15:30:07.676Z,13.96
2023-05-12T15:32:44.016Z,13.86
2023-05-12T15:35:14.644Z,13.90
2023-05-12T15:37:54.333Z,13.81
2023-05-12T15:40:27.360Z,13.80
2023-05-12T15:43:16.397Z,13.90
2023-05-12T15:45:44.104Z,13.72
2023-05-12T15:48:14.561Z,13.68
2023-05-12T15:50:48.135Z,13.58
2023-05-12T15:53:19.984Z,13.53
2023-05-12T15:55:51.081Z,13.58
2023-05-12T15:58:24.711Z,13.55
2023-05-12T16:01:06.242Z,13.46
2023-05-12T16:03:35.982Z,13.52
2023-05-12T16:06:07.128Z,13.52
2023-05-12T16:08:39.413Z,13.50
2023-05-12T16:11:17.186Z,13.49
2023-05-12T16:13:48.211Z,13.51
2023-05-12T16:16:18.327Z,13.55
2023-05-12T16:18:48.402Z,13.44
2023-05-12T16:21:24.415Z,13.47
2023-05-12T16:23:54.435Z,13.52
2023-05-12T16:26:24.633Z,13.51
2023-05-12T16:28:54.330Z,13.33
2023-05-12T16:31:28.649Z,13.33
2023-05-12T16:34:04.300Z,13.24
2023-05-12T16:36:37.797Z,13.18
2023-05-12T16:39:08.999Z,13.25
2023-05-12T16:41:43.063Z,13.10
2023-05-12T16:44:18.474Z,13.15
2023-05-12T16:46:48.601Z,13.15
2023-05-12T16:49:26.436Z,13.23
2023-05-12T16:51:56.342Z,12.92
2023-05-12T16:54:26.486Z,13.17
2023-05-12T16:56:57.446Z,13.19
2023-05-12T16:59:27.318Z,13.12
2023-05-12T17:02:08.194Z,13.10
2023-05-12T17:04:39.270Z,13.04
2023-05-12T17:07:13.312Z,12.99
2023-05-12T17:09:50.901Z,13.01
2023-05-12T17:12:37.808Z,12.97
2023-05-12T17:15:18.537Z,12.86
2023-05-12T17:17:53.910Z,12.86
2023-05-12T17:20:22.006Z,12.74
2023-05-12T17:22:54.332Z,12.81
2023-05-12T17:25:29.575Z,12.94
2023-05-12T17:27:58.630Z,12.76
2023-05-12T17:30:35.857Z,12.90
2023-05-12T17:33:07.829Z,12.77
2023-05-12T17:35:50.835Z,12.73
2023-05-12T17:38:30.184Z,12.61
2023-05-12T17:40:58.552Z,12.62
2023-05-12T17:43:30.390Z,12.40
2023-05-12T17:46:12.379Z,12.42
2023-05-12T17:48:45.301Z,12.38
2023-05-12T17:51:25.243Z,12.42
2023-05-12T17:53:57.814Z,12.44
2023-05-12T17:56:36.572Z,12.41
2023-05-12T17:59:07.654Z,12.35
2023-05-12T18:01:58.879Z,12.42
2023-05-12T18:04:29.524Z,12.35
2023-05-12T18:06:57.344Z,12.34
2023-05-12T18:09:27.708Z,12.25
2023-05-12T18:12:04.567Z,12.30
2023-05-12T18:14:37.270Z,12.31
2023-05-12T18:17:10.479Z,12.35
2023-05-12T18:19:44.491Z,12.34
2023-05-12T18:22:21.840Z,12.28
2023-05-12T18:24:54.663Z,12.28
2023-05-12T18:27:40.358Z,12.25
2023-05-12T18:30:17.291Z,12.15
2023-05-12T18:32:47.221Z,11.90
2023-05-12T18:35:25.563Z,11.95
2023-05-12T18:38:07.663Z,11.98
2023-05-12T18:40:44.353Z,12.07
2023-05-12T18:43:21.779Z,12.06
2023-05-12T18:45:53.374Z,12.10
2023-05-12T18:48:25.027Z,12.13
2023-05-12T18:50:54.348Z,12.17
2023-05-12T18:53:37.636Z,12.13
2023-05-12T18:56:08.545Z,12.20
2023-05-12T18:58:39.088Z,12.15
2023-05-12T19:01:11.844Z,12.18
2023-05-12T19:03:42.171Z,12.20
2023-05-12T19:06:19.952Z,11.79
2023-05-12T19:08:53.139Z,11.96
2023-05-12T19:11:29.405Z,12.04
2023-05-12T19:13:57.104Z,12.04
2023-05-12T19:16:35.015Z,12.08
2023-05-12T19:19:06.558Z,12.05
2023-05-12T19:21:43.521Z,12.03
2023-05-12T19:24:17.352Z,12.04
2023-05-12T19:26:47.387Z,12.08
2023-05-12T19:29:21.173Z,12.03
2023-05-12T19:31:54.928Z,12.13
2023-05-12T19:34:23.974Z,12.13
2023-05-12T19:37:01.119Z,12.12
2023-05-12T19:39:33.936Z,12.09
2023-05-12T19:42:04.733Z,12.05
2023-05-12T19:44:34.101Z,11.98
2023-05-12T19:47:06.932Z,11.97
2023-05-12T19:49:49.950Z,11.88
2023-05-12T19:52:23.469Z,11.98
2023-05-12T19:54:58.112Z,12.00
2023-05-12T19:57:36.816Z,12.05
2023-05-12T20:00:22.040Z,11.88
2023-05-12T20:02:52.724Z,12.00
2023-05-12T20:05:23.053Z,12.02
2023-05-12T20:07:54.659Z,11.96
2023-05-12T20:10:27.666Z,11.93
2023-05-12T20:12:59.914Z,11.97
2023-05-12T20:15:29.257Z,11.96
2023-05-12T20:18:04.644Z,11.78
2023-05-12T20:20:34.682Z,11.85
2023-05-12T20:23:05.649Z,11.86
2023-05-12T20:25:36.907Z,11.79
2023-05-12T20:28:04.855Z,11.74
2023-05-12T20:30:35.695Z,11.80
2023-05-12T20:35:50.475Z,11.86
2023-05-12T20:38:19.358Z,11.76
2023-05-12T20:41:02.156Z,11.78
2023-05-12T20:43:34.090Z,11.69
2023-05-12T20:46:13.401Z,11.68
2023-05-12T20:48:46.301Z,11.76
2023-05-12T20:51:20.628Z,11.72
2023-05-12T20:53:51.182Z,11.75
2023-05-12T20:56:24.974Z,11.70
2023-05-12T20:58:53.804Z,11.56
2023-05-12T21:01:24.955Z,11.64
2023-05-12T21:03:55.250Z,11.59
2023-05-12T21:06:39.540Z,11.50
2023-05-12T21:09:08.873Z,11.56
2023-05-12T21:11:39.241Z,11.51
2023-05-12T21:14:10.935Z,11.52
2023-05-12T21:16:53.888Z,11.61
2023-05-12T21:19:27.009Z,11.44
2023-05-12T21:21:56.098Z,11.32
2023-05-12T21:24:28.817Z,11.38
2023-05-12T21:26:57.239Z,11.35
2023-05-12T21:29:28.971Z,11.24
2023-05-12T21:31:57.488Z,11.34
2023-05-12T21:34:29.368Z,11.27
2023-05-12T21:36:59.477Z,11.20
2023-05-12T21:39:28.139Z,10.95
2023-05-12T21:42:02.785Z,11.00
2023-05-12T21:44:34.399Z,10.88
2023-05-12T21:47:07.756Z,10.86
2023-05-12T21:49:41.413Z,10.98
2023-05-12T21:52:16.050Z,10.90
2023-05-12T21:54:53.570Z,10.79
2023-05-12T21:57:24.205Z,10.79
2023-05-12T22:02:47.674Z,11.07
2023-05-12T22:05:23.912Z,10.63
2023-05-12T22:07:54.839Z,10.93
2023-05-12T22:10:34.749Z,11.00
2023-05-12T22:13:11.997Z,10.94
2023-05-12T22:16:03.077Z,10.66
2023-05-12T22:21:28.185Z,10.49
2023-05-12T22:24:05.473Z,10.54
2023-05-12T22:26:41.129Z,10.57
2023-05-12T22:29:11.824Z,10.61
2023-05-12T22:31:47.533Z,10.75
2023-05-12T22:34:18.594Z,10.80
2023-05-12T22:36:51.455Z,10.86
2023-05-12T22:39:25.422Z,10.93
2023-05-12T22:41:57.165Z,11.02
2023-05-12T22:44:26.390Z,10.85
2023-05-12T22:46:56.935Z,10.85
2023-05-12T22:49:26.405Z,10.86
2023-05-12T22:51:54.171Z,10.75
2023-05-12T22:54:25.027Z,10.74
2023-05-12T22:56:55.033Z,10.73
2023-05-12T22:59:37.709Z,10.76
2023-05-12T23:02:15.453Z,10.74
2023-05-12T23:04:45.308Z,10.58
2023-05-12T23:07:24.893Z,10.67
2023-05-12T23:10:00.540Z,10.65
2023-05-12T23:12:30.715Z,10.68
2023-05-12T23:15:04.480Z,10.78
2023-05-12T23:17:35.053Z,10.69
2023-05-12T23:20:10.323Z,10.73
2023-05-12T23:22:40.802Z,10.77
2023-05-12T23:25:11.334Z,10.75
2023-05-12T23:27:43.224Z,10.66
2023-05-12T23:30:20.924Z,10.84
2023-05-12T23:32:57.823Z,10.79
2023-05-12T23:35:28.519Z,10.90
2023-05-12T23:38:03.983Z,10.88
2023-05-12T23:40:34.339Z,11.05
2023-05-12T23:43:02.041Z,11.13
2023-05-12T23:45:39.836Z,11.12
2023-05-12T23:48:17.315Z,11.08
2023-05-12T23:50:48.037Z,11.17
2023-05-12T23:53:28.628Z,11.25
2023-05-12T23:56:00.857Z,11.23
2023-05-12T23:58:39.025Z,11.21
